Rehoboth Beach, Delaware
Current Conditions -  °F | °C
As of 10:54 PM on Friday 24 Oct 2014 (Local Time) from KGED Reporting Station
Clear Clear  
Wind Chill: 56°   Ceiling: Unl
Heat Index: 56°   Visibility: 10mi
Dew Point: 40°   Wind: 5mph
Humidity: 55%   Direction: 290°WNW
Pressure: 29.91"   Gusts: NA
Location:  38.72°N, 75.08°W
Report Text: KGED 250254Z AUTO 29004KT 10SM CLR 13/04 A2991 RMK AO2 SLP127 T01330044 53004 $
Loading
Personal Weather Stations






























Interactive Weather Map New forecast layout! Learn more

10-Day Weather Forecast

Advertisements
Track Severe Weather on mobile